createdAt,value
2019-04-21T00:02:26.488Z,15.87
2019-04-21T00:05:10.861Z,15.40
2019-04-21T00:07:36.184Z,16.73
2019-04-21T00:10:09.115Z,15.03
2019-04-21T00:12:28.491Z,16.17
2019-04-21T00:14:49.704Z,15.47
2019-04-21T00:17:12.989Z,15.63
2019-04-21T00:19:39.593Z,14.83
2019-04-21T00:22:19.280Z,15.30
2019-04-21T00:24:48.794Z,15.93
2019-04-21T00:27:21.420Z,15.37
2019-04-21T00:29:47.825Z,14.83
2019-04-21T00:32:13.575Z,15.97
2019-04-21T00:34:28.145Z,15.00
2019-04-21T00:37:08.310Z,15.27
2019-04-21T00:39:48.998Z,14.23
2019-04-21T00:42:11.308Z,15.27
2019-04-21T00:44:30.822Z,14.33
2019-04-21T00:47:04.149Z,14.63
2019-04-21T00:49:27.049Z,14.77
2019-04-21T00:52:24.355Z,13.70
2019-04-21T00:54:41.528Z,14.43
2019-04-21T00:57:14.620Z,14.23
2019-04-21T00:59:37.088Z,13.10
2019-04-21T01:01:59.696Z,13.63
2019-04-21T01:04:32.847Z,12.90
2019-04-21T01:07:05.306Z,12.40
2019-04-21T01:09:23.679Z,13.73
2019-04-21T01:11:55.291Z,13.00
2019-04-21T01:14:32.948Z,13.00
2019-04-21T01:16:57.720Z,12.87
2019-04-21T01:19:17.323Z,13.17
2019-04-21T01:21:28.624Z,14.13
2019-04-21T01:24:02.994Z,12.97
2019-04-21T01:26:32.828Z,13.60
2019-04-21T01:29:05.437Z,13.17
2019-04-21T01:31:36.678Z,12.83
2019-04-21T01:34:08.873Z,12.70
2019-04-21T01:36:34.675Z,13.67
2019-04-21T01:39:07.821Z,11.90
2019-04-21T01:41:35.105Z,13.20
2019-04-21T01:43:56.894Z,13.53
2019-04-21T01:46:25.665Z,13.07
2019-04-21T01:48:49.428Z,13.03
2019-04-21T01:51:22.523Z,13.60
2019-04-21T01:53:59.537Z,13.00
2019-04-21T01:56:24.722Z,12.37
2019-04-21T01:58:42.551Z,12.40
2019-04-21T02:01:19.365Z,12.67
2019-04-21T02:03:53.212Z,12.43
2019-04-21T02:06:22.194Z,13.50
2019-04-21T02:08:41.779Z,13.57
2019-04-21T02:11:18.876Z,11.30
2019-04-21T02:13:48.957Z,12.70
2019-04-21T02:16:11.410Z,12.07
2019-04-21T02:18:39.102Z,12.50
2019-04-21T02:20:55.409Z,12.67
2019-04-21T02:23:44.008Z,11.83
2019-04-21T02:26:03.334Z,12.47
2019-04-21T02:28:38.418Z,12.80
2019-04-21T02:38:39.157Z,11.97
2019-04-21T02:40:57.278Z,12.70
2019-04-21T02:43:24.868Z,12.33
2019-04-21T02:48:43.605Z,13.83
2019-04-21T02:51:12.592Z,12.53
2019-04-21T02:53:37.387Z,12.53
2019-04-21T02:55:58.695Z,12.07
2019-04-21T02:58:25.060Z,11.60
2019-04-21T03:03:29.770Z,12.47
2019-04-21T03:05:53.832Z,12.27
2019-04-21T03:08:29.996Z,12.47
2019-04-21T03:13:21.608Z,12.23
2019-04-21T03:20:42.443Z,12.30
2019-04-21T03:25:41.745Z,12.00
2019-04-21T03:28:06.426Z,11.17
2019-04-21T03:33:41.056Z,11.47
2019-04-21T03:35:58.221Z,10.90
2019-04-21T03:38:13.795Z,11.87
2019-04-21T03:40:18.670Z,10.77
2019-04-21T03:45:39.148Z,11.70
2019-04-21T03:47:55.253Z,11.00
2019-04-21T03:50:29.751Z,11.17
2019-04-21T03:52:55.083Z,11.73
2019-04-21T03:55:41.569Z,10.53
2019-04-21T04:00:36.687Z,11.40
2019-04-21T04:02:58.772Z,11.27
2019-04-21T04:05:21.474Z,11.37
2019-04-21T04:12:40.749Z,10.80
2019-04-21T04:15:12.082Z,11.40
2019-04-21T04:17:40.825Z,11.60
2019-04-21T04:20:04.031Z,10.83
2019-04-21T04:29:59.275Z,11.53
2019-04-21T04:32:29.250Z,12.00
2019-04-21T04:34:57.334Z,11.47
2019-04-21T04:37:32.077Z,11.87
2019-04-21T04:40:14.562Z,11.17
2019-04-21T04:42:29.922Z,11.43
2019-04-21T04:45:09.635Z,13.10
2019-04-21T04:47:16.689Z,11.70
2019-04-21T04:52:31.225Z,12.97
2019-04-21T04:57:16.419Z,12.00
2019-04-21T04:59:42.495Z,11.83
2019-04-21T05:04:50.032Z,12.20
2019-04-21T05:09:37.085Z,12.13
2019-04-21T05:12:01.934Z,11.73
2019-04-21T05:14:29.851Z,12.40
2019-04-21T05:19:51.640Z,11.93
2019-04-21T05:21:45.409Z,12.47
2019-04-21T05:24:12.410Z,11.33
2019-04-21T05:26:39.146Z,13.17
2019-04-21T05:29:02.077Z,13.03
2019-04-21T05:31:44.552Z,11.27
2019-04-21T05:34:12.082Z,12.03
2019-04-21T05:36:38.231Z,13.93
2019-04-21T05:39:07.199Z,12.40
2019-04-21T05:41:27.300Z,12.70
2019-04-21T05:44:03.808Z,12.47
2019-04-21T05:46:40.911Z,12.93
2019-04-21T05:49:02.909Z,13.23
2019-04-21T05:51:30.303Z,13.10
2019-04-21T05:54:10.850Z,12.77
2019-04-21T05:56:32.348Z,13.07
2019-04-21T05:58:58.124Z,12.97
2019-04-21T06:03:57.679Z,12.90
2019-04-21T06:06:27.069Z,13.00
2019-04-21T06:08:52.588Z,13.17
2019-04-21T06:13:57.545Z,13.80
2019-04-21T06:16:17.811Z,13.40
2019-04-21T06:18:48.564Z,14.20
2019-04-21T06:21:10.834Z,12.90
2019-04-21T06:23:43.579Z,13.43
2019-04-21T06:28:44.005Z,14.57
2019-04-21T06:31:18.149Z,13.53
2019-04-21T06:33:39.461Z,13.90
2019-04-21T06:38:43.384Z,14.27
2019-04-21T06:41:04.815Z,13.53
2019-04-21T06:43:37.237Z,14.23
2019-04-21T06:46:01.348Z,14.33
2019-04-21T06:48:30.157Z,15.20
2019-04-21T06:51:04.234Z,15.10
2019-04-21T06:53:29.474Z,15.07
2019-04-21T06:55:56.218Z,16.43
2019-04-21T06:58:20.850Z,15.60
2019-04-21T07:00:44.145Z,14.70
2019-04-21T07:05:54.726Z,15.23
2019-04-21T07:08:23.218Z,17.40
2019-04-21T07:10:41.585Z,15.53
2019-04-21T07:13:03.479Z,16.30
2019-04-21T07:15:40.988Z,16.13
2019-04-21T07:18:04.442Z,17.03
2019-04-21T07:20:30.764Z,18.17
2019-04-21T07:23:03.212Z,17.80
2019-04-21T07:25:29.234Z,16.80
2019-04-21T07:27:52.004Z,17.17
2019-04-21T07:30:26.523Z,17.53
2019-04-21T07:32:59.008Z,16.97
2019-04-21T07:35:31.829Z,17.47
2019-04-21T07:37:47.883Z,18.50
2019-04-21T07:40:12.391Z,17.53
2019-04-21T07:42:40.095Z,18.73
2019-04-21T07:45:05.166Z,18.33
2019-04-21T07:47:44.456Z,20.27
2019-04-21T07:50:07.386Z,18.93
2019-04-21T07:52:39.463Z,19.50
2019-04-21T07:57:31.640Z,19.57
2019-04-21T08:00:16.089Z,20.50
2019-04-21T08:02:29.170Z,19.83
2019-04-21T08:05:04.145Z,20.03
2019-04-21T08:07:32.369Z,19.60
2019-04-21T08:09:51.133Z,20.90
2019-04-21T08:12:18.313Z,20.43
2019-04-21T08:14:50.821Z,20.53
2019-04-21T08:17:16.199Z,19.93
2019-04-21T08:19:43.101Z,21.33
2019-04-21T08:22:18.645Z,20.03
2019-04-21T08:24:42.395Z,19.97
2019-04-21T08:27:14.164Z,20.10
2019-04-21T08:29:39.407Z,20.30
2019-04-21T08:32:28.091Z,19.47
2019-04-21T08:34:35.811Z,21.20
2019-04-21T08:37:02.696Z,19.83
2019-04-21T08:39:34.419Z,19.57
2019-04-21T08:41:55.954Z,20.40
2019-04-21T08:44:33.634Z,18.50
2019-04-21T08:47:00.225Z,19.13
2019-04-21T08:49:22.160Z,18.03
2019-04-21T08:51:55.894Z,18.23
2019-04-21T08:54:23.537Z,18.50
2019-04-21T08:56:48.318Z,18.57
2019-04-21T08:59:26.766Z,19.23
2019-04-21T09:01:48.861Z,18.87
2019-04-21T09:04:19.927Z,18.47
2019-04-21T09:06:58.678Z,17.60
2019-04-21T09:09:16.757Z,18.47
2019-04-21T09:11:40.469Z,18.17
2019-04-21T09:14:13.768Z,18.03
2019-04-21T09:16:36.739Z,17.90
2019-04-21T09:18:56.950Z,20.40
2019-04-21T09:21:42.294Z,20.87
2019-04-21T09:24:09.373Z,21.77
2019-04-21T09:26:31.126Z,20.23
2019-04-21T09:28:54.496Z,21.60
2019-04-21T09:31:08.958Z,20.43
2019-04-21T09:33:41.265Z,23.07
2019-04-21T09:36:07.033Z,23.27
2019-04-21T09:38:37.036Z,23.03
2019-04-21T09:41:00.500Z,22.27
2019-04-21T09:43:35.731Z,22.10
2019-04-21T09:45:54.846Z,23.23
2019-04-21T09:48:24.235Z,22.47
2019-04-21T09:50:50.336Z,20.77
2019-04-21T09:53:24.994Z,21.63
2019-04-21T09:55:53.569Z,22.87
2019-04-21T09:58:23.997Z,21.63
2019-04-21T10:00:52.438Z,22.13
2019-04-21T10:03:13.925Z,22.33
2019-04-21T10:05:39.209Z,22.87
2019-04-21T10:08:06.083Z,21.77
2019-04-21T10:10:32.288Z,23.10
2019-04-21T10:12:58.487Z,22.93
2019-04-21T10:15:26.511Z,21.83
2019-04-21T10:17:55.976Z,22.40
2019-04-21T10:20:22.420Z,22.77
2019-04-21T10:22:49.139Z,23.03
2019-04-21T10:25:16.542Z,23.17
2019-04-21T10:27:43.440Z,24.03
2019-04-21T10:30:09.997Z,24.27
2019-04-21T10:32:36.458Z,24.43
2019-04-21T10:35:05.501Z,24.40
2019-04-21T10:37:44.138Z,25.07
2019-04-21T10:40:00.113Z,24.07
2019-04-21T10:42:26.981Z,25.60
2019-04-21T10:44:54.734Z,25.57
2019-04-21T10:47:22.691Z,24.93
2019-04-21T10:49:49.105Z,24.33
2019-04-21T10:52:17.349Z,25.47
2019-04-21T10:55:07.280Z,25.70
2019-04-21T10:57:14.455Z,25.07
2019-04-21T10:59:46.194Z,27.50
2019-04-21T11:02:10.968Z,26.80
2019-04-21T11:04:39.082Z,28.93
2019-04-21T11:07:11.366Z,28.63
2019-04-21T11:09:36.087Z,29.23
2019-04-21T11:12:03.978Z,29.43
2019-04-21T11:14:31.495Z,30.17
2019-04-21T11:16:58.555Z,28.73
2019-04-21T11:19:25.042Z,28.67
2019-04-21T11:21:52.467Z,31.67
2019-04-21T11:24:18.875Z,31.47
2019-04-21T11:26:45.539Z,31.40
2019-04-21T11:29:12.819Z,31.60
2019-04-21T11:31:39.112Z,33.20
2019-04-21T11:34:05.318Z,33.13
2019-04-21T11:36:31.551Z,32.53
2019-04-21T11:39:16.820Z,32.73
2019-04-21T11:41:27.907Z,31.77
2019-04-21T11:43:55.020Z,33.97
2019-04-21T11:46:22.522Z,35.37
2019-04-21T11:48:50.309Z,36.23
2019-04-21T11:51:17.170Z,35.40
2019-04-21T11:53:43.476Z,37.30
2019-04-21T11:56:09.778Z,35.83
2019-04-21T11:58:36.110Z,37.73
2019-04-21T12:01:05.583Z,40.40
2019-04-21T12:03:33.489Z,37.43
2019-04-21T12:05:59.928Z,40.10
2019-04-21T12:08:34.344Z,42.17
2019-04-21T12:10:55.453Z,42.30
2019-04-21T12:13:22.358Z,41.83
2019-04-21T12:15:49.188Z,44.37
2019-04-21T12:18:15.601Z,44.77
2019-04-21T12:20:43.046Z,44.33
2019-04-21T12:23:09.347Z,42.03
2019-04-21T12:25:38.933Z,43.30
2019-04-21T12:28:05.855Z,43.57
2019-04-21T12:30:33.281Z,43.23
2019-04-21T12:33:02.413Z,44.17
2019-04-21T12:35:29.784Z,43.67
2019-04-21T12:37:56.380Z,44.57
2019-04-21T12:40:22.766Z,43.63
2019-04-21T12:42:49.007Z,45.80
2019-04-21T12:45:17.423Z,44.40
2019-04-21T12:47:44.054Z,46.70
2019-04-21T12:50:10.970Z,44.57
2019-04-21T12:52:37.807Z,48.60
2019-04-21T12:55:05.727Z,48.13
2019-04-21T12:57:33.235Z,47.67
2019-04-21T13:00:00.488Z,46.70
2019-04-21T13:02:27.446Z,48.57
2019-04-21T13:04:54.617Z,49.67
2019-04-21T13:07:21.755Z,51.57
2019-04-21T13:09:48.474Z,50.57
2019-04-21T13:12:15.236Z,49.83
2019-04-21T13:14:42.120Z,50.43
2019-04-21T13:17:09.754Z,48.10
2019-04-21T13:19:36.305Z,46.73
2019-04-21T13:22:03.855Z,48.23
2019-04-21T13:24:31.703Z,46.57
2019-04-21T13:27:00.228Z,47.80
2019-04-21T13:29:26.309Z,45.77
2019-04-21T13:31:52.458Z,43.57
2019-04-21T13:34:19.921Z,45.17
2019-04-21T13:36:47.575Z,46.70
2019-04-21T13:39:48.820Z,49.03
2019-04-21T13:41:56.717Z,47.17
2019-04-21T13:44:15.354Z,47.90
2019-04-21T13:46:42.981Z,48.20
2019-04-21T13:49:09.749Z,45.73
2019-04-21T13:51:36.140Z,43.37
2019-04-21T13:54:04.046Z,44.83
2019-04-21T13:56:30.364Z,43.03
2019-04-21T13:58:58.107Z,41.93
2019-04-21T14:01:25.601Z,40.97
2019-04-21T14:03:53.568Z,41.10
2019-04-21T14:06:20.379Z,43.73
2019-04-21T14:08:48.614Z,41.13
2019-04-21T14:11:15.576Z,43.27
2019-04-21T14:13:42.587Z,43.37
2019-04-21T14:16:09.684Z,44.43
2019-04-21T14:18:36.578Z,45.17
2019-04-21T14:21:03.168Z,46.77
2019-04-21T14:23:36.262Z,45.67
2019-04-21T14:25:57.594Z,48.43
2019-04-21T14:28:24.066Z,47.53
2019-04-21T14:30:50.572Z,50.67
2019-04-21T14:33:18.188Z,48.77
2019-04-21T14:35:45.083Z,49.43
2019-04-21T14:38:11.403Z,47.53
2019-04-21T14:40:38.828Z,45.83
2019-04-21T14:43:05.918Z,44.33
2019-04-21T14:45:34.636Z,43.93
2019-04-21T14:48:03.271Z,44.20
2019-04-21T14:50:32.469Z,42.17
2019-04-21T14:53:03.170Z,43.60
2019-04-21T14:55:31.168Z,41.57
2019-04-21T14:57:58.985Z,36.77
2019-04-21T15:00:29.323Z,40.40
2019-04-21T15:02:55.913Z,43.27
2019-04-21T15:05:25.106Z,41.37
2019-04-21T15:07:51.560Z,40.90
2019-04-21T15:10:22.268Z,38.93
2019-04-21T15:12:45.792Z,40.40
2019-04-21T15:15:12.010Z,43.23
2019-04-21T15:17:38.231Z,40.43
2019-04-21T15:20:11.131Z,37.73
2019-04-21T15:22:34.639Z,38.57
2019-04-21T15:25:00.871Z,38.40
2019-04-21T15:27:27.536Z,38.60
2019-04-21T15:29:53.876Z,38.27
2019-04-21T15:32:20.107Z,36.63
2019-04-21T15:34:46.316Z,36.17
2019-04-21T15:37:13.722Z,34.83
2019-04-21T15:39:40.477Z,34.97
2019-04-21T15:42:06.772Z,32.60
2019-04-21T15:44:34.530Z,34.00
2019-04-21T15:47:02.016Z,34.13
2019-04-21T15:49:40.510Z,36.27
2019-04-21T15:51:58.305Z,36.60
2019-04-21T15:54:24.778Z,36.20
2019-04-21T15:56:53.169Z,35.10
2019-04-21T15:59:22.174Z,37.90
2019-04-21T16:01:50.730Z,40.17
2019-04-21T16:04:18.491Z,37.70
2019-04-21T16:06:47.783Z,37.07
2019-04-21T16:09:16.557Z,35.70
2019-04-21T16:11:42.194Z,34.67
2019-04-21T16:14:10.017Z,34.03
2019-04-21T16:16:36.457Z,33.77
2019-04-21T16:19:03.752Z,35.53
2019-04-21T16:21:31.631Z,33.77
2019-04-21T16:23:58.299Z,32.47
2019-04-21T16:26:24.699Z,30.40
2019-04-21T16:28:51.241Z,30.13
2019-04-21T16:31:18.488Z,29.47
2019-04-21T16:33:45.230Z,28.80
2019-04-21T16:36:13.161Z,28.97
2019-04-21T16:38:39.702Z,28.20
2019-04-21T16:41:09.146Z,27.27
2019-04-21T16:43:35.304Z,25.97
2019-04-21T16:46:01.784Z,28.53
2019-04-21T16:48:27.993Z,27.20
2019-04-21T16:50:55.322Z,26.80
2019-04-21T16:53:23.995Z,26.17
2019-04-21T16:55:53.190Z,25.20
2019-04-21T16:58:25.093Z,26.33
2019-04-21T17:00:59.512Z,25.97
2019-04-21T17:03:19.691Z,26.30
2019-04-21T17:05:45.930Z,26.93
2019-04-21T17:08:13.640Z,26.97
2019-04-21T17:10:40.405Z,26.07
2019-04-21T17:13:09.627Z,25.40
2019-04-21T17:15:58.289Z,26.37
2019-04-21T17:18:23.062Z,25.57
2019-04-21T17:20:43.013Z,26.40
2019-04-21T17:23:01.682Z,25.53
2019-04-21T17:25:29.734Z,24.97
2019-04-21T17:27:56.870Z,26.90
2019-04-21T17:30:24.238Z,26.33
2019-04-21T17:32:51.825Z,25.97
2019-04-21T17:35:19.851Z,26.33
2019-04-21T17:37:47.808Z,25.97
2019-04-21T17:40:18.064Z,26.47
2019-04-21T17:42:51.103Z,26.73
2019-04-21T17:45:13.188Z,28.30
2019-04-21T17:47:46.430Z,27.50
2019-04-21T17:50:09.498Z,26.10
2019-04-21T17:52:43.714Z,27.90
2019-04-21T17:55:16.828Z,27.43
2019-04-21T17:57:54.457Z,27.33
2019-04-21T18:00:46.270Z,25.97
2019-04-21T18:02:53.212Z,26.97
2019-04-21T18:05:22.560Z,26.63
2019-04-21T18:07:46.799Z,28.93
2019-04-21T18:10:14.224Z,28.00
2019-04-21T18:12:39.988Z,28.37
2019-04-21T18:15:13.561Z,28.47
2019-04-21T18:17:22.679Z,28.87
2019-04-21T18:19:51.320Z,27.53
2019-04-21T18:22:19.587Z,28.40
2019-04-21T18:24:57.045Z,29.43
2019-04-21T18:27:17.529Z,29.10
2019-04-21T18:29:44.441Z,28.23
2019-04-21T18:32:12.313Z,27.67
2019-04-21T18:34:52.318Z,27.70
2019-04-21T18:37:17.416Z,27.27
2019-04-21T18:39:53.679Z,28.47
2019-04-21T18:42:26.373Z,27.07
2019-04-21T18:45:22.671Z,25.80
2019-04-21T18:47:31.963Z,25.97
2019-04-21T18:49:43.706Z,26.57
2019-04-21T18:52:20.662Z,26.97
2019-04-21T18:54:54.767Z,26.27
2019-04-21T18:57:17.247Z,26.33
2019-04-21T18:59:39.608Z,25.10
2019-04-21T19:02:08.051Z,25.37
2019-04-21T19:04:33.849Z,25.43
2019-04-21T19:07:16.892Z,24.33
2019-04-21T19:10:07.229Z,23.53
2019-04-21T19:12:12.280Z,24.93
2019-04-21T19:14:40.063Z,24.77
2019-04-21T19:17:39.695Z,25.03
2019-04-21T19:19:46.744Z,26.20
2019-04-21T19:22:06.467Z,25.33
2019-04-21T19:24:33.753Z,25.83
2019-04-21T19:27:08.125Z,26.27
2019-04-21T19:29:28.814Z,25.00
2019-04-21T19:31:54.677Z,24.57
2019-04-21T19:34:14.360Z,25.37
2019-04-21T19:36:36.530Z,26.20
2019-04-21T19:39:11.334Z,25.07
2019-04-21T19:41:45.846Z,26.63
2019-04-21T19:44:17.225Z,26.73
2019-04-21T19:46:43.457Z,24.60
2019-04-21T19:49:24.182Z,26.63
2019-04-21T19:51:36.296Z,27.40
2019-04-21T19:54:01.721Z,26.37
2019-04-21T19:56:21.960Z,26.93
2019-04-21T19:58:49.238Z,27.33
2019-04-21T20:01:17.344Z,28.07
2019-04-21T20:03:48.609Z,25.97
2019-04-21T20:06:30.141Z,27.40
2019-04-21T20:09:00.737Z,28.90
2019-04-21T20:11:24.137Z,27.57
2019-04-21T20:14:03.590Z,26.10
2019-04-21T20:16:23.069Z,26.23
2019-04-21T20:18:39.865Z,25.80
2019-04-21T20:21:01.766Z,26.53
2019-04-21T20:23:32.682Z,24.43
2019-04-21T20:26:01.162Z,27.17
2019-04-21T20:28:38.833Z,25.63
2019-04-21T20:31:17.639Z,26.90
2019-04-21T20:36:12.013Z,25.40
2019-04-21T20:38:30.147Z,24.93
2019-04-21T20:40:50.931Z,25.07
2019-04-21T20:43:30.931Z,23.20
2019-04-21T20:45:59.220Z,25.07
2019-04-21T20:48:18.077Z,27.50
2019-04-21T20:50:57.366Z,26.83
2019-04-21T20:53:21.639Z,26.30
2019-04-21T20:55:48.466Z,25.73
2019-04-21T20:58:07.852Z,27.97
2019-04-21T21:01:04.221Z,27.77
2019-04-21T21:03:17.837Z,27.87
2019-04-21T21:05:37.573Z,27.47
2019-04-21T21:08:14.927Z,29.50
2019-04-21T21:10:36.955Z,30.07
2019-04-21T21:13:14.526Z,30.60
2019-04-21T21:15:32.377Z,28.60
2019-04-21T21:18:05.825Z,30.63
2019-04-21T21:20:30.994Z,31.30
2019-04-21T21:22:55.374Z,30.03
2019-04-21T21:25:35.316Z,30.63
2019-04-21T21:27:48.250Z,30.80
2019-04-21T21:30:18.385Z,31.47
2019-04-21T21:32:53.067Z,32.10
2019-04-21T21:35:17.552Z,29.93
2019-04-21T21:37:49.000Z,30.70
2019-04-21T21:40:18.683Z,30.83
2019-04-21T21:42:30.517Z,33.13
2019-04-21T21:45:00.764Z,32.60
2019-04-21T21:47:39.447Z,32.97
2019-04-21T21:50:02.538Z,32.40
2019-04-21T21:52:31.412Z,30.97
2019-04-21T21:54:45.619Z,31.13
2019-04-21T21:57:12.395Z,33.40
2019-04-21T21:59:40.432Z,31.23
2019-04-21T22:02:09.372Z,32.93
2019-04-21T22:04:37.256Z,32.80
2019-04-21T22:07:07.293Z,31.80
2019-04-21T22:09:32.272Z,33.37
2019-04-21T22:12:02.806Z,34.57
2019-04-21T22:14:34.055Z,33.80
2019-04-21T22:17:10.683Z,31.70
2019-04-21T22:19:48.897Z,31.70
2019-04-21T22:22:09.259Z,31.27
2019-04-21T22:24:34.958Z,31.97
2019-04-21T22:26:47.354Z,33.07
2019-04-21T22:29:13.836Z,30.63
2019-04-21T22:31:41.568Z,31.00
2019-04-21T22:34:12.206Z,30.87
2019-04-21T22:36:48.809Z,31.17
2019-04-21T22:39:23.827Z,31.63
2019-04-21T22:41:41.207Z,31.70
2019-04-21T22:44:03.083Z,30.83
2019-04-21T22:46:30.573Z,30.70
2019-04-21T22:49:03.152Z,30.07
2019-04-21T22:51:34.840Z,30.83
2019-04-21T22:53:55.764Z,28.70
2019-04-21T22:56:26.852Z,29.47
2019-04-21T22:58:50.011Z,30.93
2019-04-21T23:01:17.763Z,31.27
2019-04-21T23:03:49.203Z,27.60
2019-04-21T23:06:17.895Z,28.33
2019-04-21T23:08:45.228Z,28.43
2019-04-21T23:11:12.276Z,27.67
2019-04-21T23:13:38.640Z,28.70
2019-04-21T23:16:06.320Z,27.07
2019-04-21T23:18:46.386Z,31.60
2019-04-21T23:21:13.550Z,28.70
2019-04-21T23:23:52.890Z,29.60
2019-04-21T23:26:18.224Z,29.40
2019-04-21T23:28:49.063Z,28.80
2019-04-21T23:31:15.454Z,29.73
2019-04-21T23:33:22.090Z,28.33
2019-04-21T23:35:53.257Z,30.43
2019-04-21T23:38:26.513Z,30.70
2019-04-21T23:40:51.684Z,28.87
2019-04-21T23:43:17.236Z,30.23
2019-04-21T23:45:44.598Z,29.53
2019-04-21T23:48:23.308Z,28.73
2019-04-21T23:50:48.233Z,28.57
2019-04-21T23:53:05.649Z,29.13
2019-04-21T23:55:32.026Z,29.73
2019-04-21T23:58:09.422Z,30.33
